Piedmont Triad International Airport
KGSO : now visible

Airfield :











YOU CAN JOIN US ON...

 
LOGIN :

Register | Disclaimer

   EN    FR    IT 

 









Legend :    VFR   Marginal VFR   IFR   Intensive IFR   Very Intensive IFR
Visi :
Ceiling :
>= 8 km
>= 3000ft
5 to 8 km
1000 to 3000 ft
1500m to 5 km
500 to 1000 ft
800 to 1500m
200 to 500 ft
< 800m
< 200 ft
Symbols :   Thunderstorms  Fog  Heavy snow  Heavy precipitations  Wind > 20 kt







- Airport Elevation : 925 ft
- IATA code : GSO


KGSO - Piedmont Triad International

CURRENT METAR :
  • 201254Z 06011KT 1SM R05R/P6000FT -FZRA BR BKN005 OVC009 00/00 A3037 RMK AO2 TWR VIS 2 FZDZE07FZRAB07 SLP291 P0002 I1000 T00000000

EXPIRED METARs :
  • 201235Z 06010KT 1SM R05R/P6000FT -FZRA BR BKN007 OVC013 00/00 A3036 RMK AO2 TWR VIS 2 FZDZE07FZRAB07 P0001 I1000 T00000000
  • 201218Z 07008KT 1 1/2SM -FZRA BR BKN008 OVC013 00/00 A3036 RMK AO2 TWR VIS 2 FZDZE07FZRAB07 P0000 I1000 T00000000
  • 201207Z 06008KT 2SM -FZRA BR BKN007 BKN013 OVC021 00/00 A3036 RMK AO2 SFC VIS 2 1/2 FZDZE07FZRAB07 P0000 I1000 T00000000
  • 201154Z 06008KT 5SM -FZDZ BR BKN007 OVC021 00/M01 A3036 RMK AO2 RAE12FZDZB46 CIG 005V012 SLP288 P0000 60012 70035 I1000 I6000 T00001006 10011 20000 55009
  • 201146Z 06008KT 6SM -FZDZ BR BKN007 OVC021 00/00 A3036 RMK AO2 RAE12FZDZB46 CIG 005V012 P0000 I1000 T00000000
  • 201054Z 06011KT 10SM -RA OVC005 01/01 A3034 RMK AO2 SLP280 P0002 T00060006
  • 201037Z 06007KT 4SM -RA BR OVC005 01/01 A3036 RMK AO2 CIG 003V009 P0001 T00060006
  • 201011Z 07008KT 2SM -RA BR OVC005 01/01 A3037 RMK AO2 CIG 003V010 P0000 T00060006
  • 201004Z 08008KT 3SM -RA BR OVC005 01/01 A3037 RMK AO2 CIG 003V010 P0000 T00060006

TAF KGSO
Valid from the 20 at 12:00 until the 21 at 12:00 UTC


201138Z 2012/2112 05006KT P6SM -RA BKN005 OVC020
TEMPO 2012/2015 3SM -FZDZ BR OVC004
FM201800 05007KT 1 1/2SM -RA BR OVC004
FM202300 06005KT 1 1/2SM -DZ BR OVC004
FM210800 03003KT 1/2SM FG OVC002
KZTL FIR / North America



MET'MAP, your aeronautical weather chart ! - Copyright ORBIFLY December 2007 - Disclaimer

ORBIFLY MET'MAP TEAM :

Programming & Development : Alexandra Zaïnal
Concept & Development : Baudouin d'Aumeries
Co-Development & Prog : Marc-Olivier Méhu
Technical & hardware support : Manuel Goepfert

Contact : metmap@orbifly.com




SOURCES & CREDITS :

   NOAA       Earth
Advisory